createdAt,value
2022-10-20T00:00:42.725Z,8.10
2022-10-20T00:03:12.723Z,8.10
2022-10-20T00:05:39.654Z,8.10
2022-10-20T00:08:06.525Z,8.20
2022-10-20T00:10:34.030Z,8.20
2022-10-20T00:13:01.092Z,8.20
2022-10-20T00:15:28.183Z,8.30
2022-10-20T00:18:12.503Z,8.30
2022-10-20T00:20:45.759Z,8.30
2022-10-20T00:23:12.677Z,8.30
2022-10-20T00:25:39.565Z,8.30
2022-10-20T00:28:07.018Z,8.40
2022-10-20T00:30:35.516Z,8.40
2022-10-20T00:33:03.473Z,8.40
2022-10-20T00:35:31.535Z,8.30
2022-10-20T00:37:58.712Z,8.30
2022-10-20T00:40:26.178Z,8.30
2022-10-20T00:42:52.949Z,8.30
2022-10-20T00:45:21.593Z,8.30
2022-10-20T00:47:52.335Z,8.20
2022-10-20T00:50:27.104Z,8.30
2022-10-20T00:52:55.748Z,8.30
2022-10-20T00:55:28.828Z,8.20
2022-10-20T00:57:58.196Z,8.30
2022-10-20T01:00:25.938Z,8.20
2022-10-20T01:02:56.423Z,8.20
2022-10-20T01:05:23.214Z,8.10
2022-10-20T01:07:50.190Z,8.10
2022-10-20T01:10:17.847Z,8.10
2022-10-20T01:13:17.393Z,8.10
2022-10-20T01:16:00.981Z,8.00
2022-10-20T01:18:50.520Z,8.00
2022-10-20T01:21:35.403Z,8.00
2022-10-20T01:24:39.289Z,8.00
2022-10-20T01:27:27.213Z,8.00
2022-10-20T01:30:16.902Z,7.90
2022-10-20T01:32:58.751Z,7.90
2022-10-20T01:35:44.623Z,7.90
2022-10-20T01:38:51.872Z,7.90
2022-10-20T01:41:49.771Z,7.90
2022-10-20T01:44:19.319Z,7.90
2022-10-20T01:46:46.972Z,7.90
2022-10-20T01:49:15.339Z,7.90
2022-10-20T01:51:44.728Z,7.90
2022-10-20T01:54:29.219Z,7.80
2022-10-20T01:57:20.856Z,7.80
2022-10-20T02:00:11.349Z,7.80
2022-10-20T02:03:06.292Z,7.80
2022-10-20T02:05:40.520Z,7.80
2022-10-20T02:08:31.496Z,7.80
2022-10-20T02:11:02.592Z,7.80
2022-10-20T02:13:30.542Z,7.80
2022-10-20T02:16:01.160Z,7.90
2022-10-20T02:18:33.554Z,7.90
2022-10-20T02:21:03.650Z,7.90
2022-10-20T02:23:35.130Z,7.80
2022-10-20T02:26:07.748Z,7.90
2022-10-20T02:28:37.463Z,7.80
2022-10-20T02:31:04.833Z,7.90
2022-10-20T02:33:32.165Z,7.90
2022-10-20T02:35:59.910Z,7.90
2022-10-20T02:38:26.908Z,7.90
2022-10-20T02:40:53.616Z,7.90
2022-10-20T02:43:20.387Z,7.90
2022-10-20T02:45:47.322Z,7.90
2022-10-20T02:48:14.137Z,7.90
2022-10-20T02:50:42.498Z,7.90
2022-10-20T02:53:09.267Z,7.90
2022-10-20T02:55:36.048Z,7.90
2022-10-20T02:58:02.766Z,7.80
2022-10-20T03:00:31.093Z,7.90
2022-10-20T03:02:57.831Z,8.00
2022-10-20T03:05:24.761Z,7.80
2022-10-20T03:07:51.509Z,7.80
2022-10-20T03:10:18.509Z,8.00
2022-10-20T03:12:45.603Z,7.90
2022-10-20T03:15:12.893Z,7.90
2022-10-20T03:17:39.789Z,7.80
2022-10-20T03:20:07.717Z,7.80
2022-10-20T03:22:37.488Z,7.80
2022-10-20T03:25:04.698Z,7.80
2022-10-20T03:27:31.434Z,7.80
2022-10-20T03:29:58.200Z,7.80
2022-10-20T03:32:27.489Z,7.80
2022-10-20T03:34:54.446Z,7.80
2022-10-20T03:37:21.777Z,7.70
2022-10-20T03:39:48.683Z,7.70
2022-10-20T03:42:15.586Z,7.70
2022-10-20T03:44:48.039Z,7.70
2022-10-20T03:47:14.895Z,7.70
2022-10-20T03:49:41.793Z,7.60
2022-10-20T03:52:08.573Z,7.60
2022-10-20T03:54:36.874Z,7.60
2022-10-20T03:57:06.846Z,7.60
2022-10-20T03:59:34.823Z,7.60
2022-10-20T04:02:01.752Z,7.60
2022-10-20T04:04:28.597Z,7.60
2022-10-20T04:06:55.367Z,7.60
2022-10-20T04:09:22.142Z,7.60
2022-10-20T04:11:49.211Z,7.60
2022-10-20T04:14:16.050Z,7.60
2022-10-20T04:16:42.771Z,7.70
2022-10-20T04:19:09.710Z,7.50
2022-10-20T04:21:36.992Z,7.50
2022-10-20T04:24:07.800Z,7.50
2022-10-20T04:26:34.485Z,7.50
2022-10-20T04:29:03.270Z,7.50
2022-10-20T04:31:29.998Z,7.50
2022-10-20T04:33:56.790Z,7.40
2022-10-20T04:36:23.662Z,7.40
2022-10-20T04:38:50.445Z,7.30
2022-10-20T04:41:17.300Z,7.20
2022-10-20T04:43:44.111Z,7.10
2022-10-20T04:46:11.064Z,7.10
2022-10-20T04:48:44.282Z,6.80
2022-10-20T04:51:14.011Z,6.70
2022-10-20T04:53:41.159Z,6.70
2022-10-20T04:56:11.391Z,6.50
2022-10-20T04:58:38.261Z,6.40
2022-10-20T05:01:10.145Z,6.40
2022-10-20T05:03:37.577Z,6.30
2022-10-20T05:06:22.216Z,6.30
2022-10-20T05:08:51.801Z,6.20
2022-10-20T05:11:21.141Z,6.20
2022-10-20T05:13:48.322Z,6.10
2022-10-20T05:16:17.475Z,6.10
2022-10-20T05:18:46.306Z,6.10
2022-10-20T05:21:19.098Z,6.00
2022-10-20T05:23:46.546Z,5.90
2022-10-20T05:26:16.864Z,5.90
2022-10-20T05:28:45.781Z,5.90
2022-10-20T05:31:13.190Z,5.80
2022-10-20T05:33:43.512Z,5.80
2022-10-20T05:36:11.409Z,5.80
2022-10-20T05:38:38.653Z,5.80
2022-10-20T05:41:10.362Z,5.80
2022-10-20T05:43:37.407Z,5.80
2022-10-20T05:46:05.164Z,5.70
2022-10-20T05:48:32.633Z,5.70
2022-10-20T05:51:34.602Z,5.70
2022-10-20T05:54:01.983Z,5.70
2022-10-20T05:56:30.081Z,5.80
2022-10-20T05:58:57.766Z,5.70
2022-10-20T06:01:27.408Z,5.70
2022-10-20T06:03:59.004Z,5.70
2022-10-20T06:06:30.931Z,5.60
2022-10-20T06:09:00.585Z,5.60
2022-10-20T06:11:27.877Z,5.60
2022-10-20T06:13:56.298Z,5.60
2022-10-20T06:16:24.981Z,5.60
2022-10-20T06:18:52.783Z,5.60
2022-10-20T06:21:28.948Z,5.70
2022-10-20T06:23:57.895Z,5.70
2022-10-20T06:26:26.929Z,5.70
2022-10-20T06:28:59.935Z,5.80
2022-10-20T06:31:36.401Z,5.80
2022-10-20T06:34:10.421Z,5.80
2022-10-20T06:36:38.979Z,5.90
2022-10-20T06:39:10.501Z,5.90
2022-10-20T06:41:37.540Z,5.90
2022-10-20T06:44:04.808Z,6.00
2022-10-20T06:46:33.922Z,6.00
2022-10-20T06:49:03.514Z,6.00
2022-10-20T06:51:31.156Z,6.10
2022-10-20T06:54:00.180Z,6.20
2022-10-20T06:56:29.352Z,6.30
2022-10-20T06:58:57.727Z,6.30
2022-10-20T07:01:30.454Z,6.60
2022-10-20T07:04:06.708Z,6.80
2022-10-20T07:06:36.488Z,6.90
2022-10-20T07:09:05.167Z,7.00
2022-10-20T07:11:32.731Z,7.20
2022-10-20T07:14:01.031Z,7.40
2022-10-20T07:16:30.641Z,7.60
2022-10-20T07:18:58.045Z,7.80
2022-10-20T07:21:32.268Z,8.00
2022-10-20T07:24:03.918Z,8.10
2022-10-20T07:26:33.133Z,8.40
2022-10-20T07:29:01.635Z,8.70
2022-10-20T07:31:34.054Z,9.00
2022-10-20T07:34:13.273Z,9.40
2022-10-20T07:36:47.635Z,9.60
2022-10-20T07:39:14.393Z,9.90
2022-10-20T07:41:43.990Z,9.90
2022-10-20T07:44:10.896Z,10.10
2022-10-20T07:46:37.868Z,10.10
2022-10-20T07:49:39.244Z,10.10
2022-10-20T07:51:51.827Z,10.20
2022-10-20T07:54:18.572Z,10.20
2022-10-20T07:56:46.574Z,10.20
2022-10-20T07:59:13.881Z,10.60
2022-10-20T08:01:41.226Z,10.90
2022-10-20T08:04:08.084Z,11.10
2022-10-20T08:06:35.208Z,11.40
2022-10-20T08:09:02.434Z,11.60
2022-10-20T08:11:29.369Z,11.80
2022-10-20T08:13:56.368Z,12.00
2022-10-20T08:16:26.204Z,12.00
2022-10-20T08:21:33.698Z,12.00
2022-10-20T08:24:02.627Z,12.00
2022-10-20T08:26:29.509Z,11.70
2022-10-20T08:28:56.440Z,11.50
2022-10-20T08:31:23.509Z,11.20
2022-10-20T08:33:52.844Z,11.10
2022-10-20T08:36:21.055Z,11.00
2022-10-20T08:38:48.537Z,11.10
2022-10-20T08:41:25.706Z,11.10
2022-10-20T08:43:56.293Z,11.20
2022-10-20T08:46:38.087Z,11.10
2022-10-20T08:49:11.394Z,11.20
2022-10-20T08:51:38.714Z,11.20
2022-10-20T08:54:13.015Z,11.30
2022-10-20T08:56:40.074Z,11.30
2022-10-20T08:59:34.469Z,11.30
2022-10-20T09:02:03.820Z,11.30
2022-10-20T09:04:51.272Z,11.30
2022-10-20T09:07:37.823Z,11.40
2022-10-20T09:10:16.836Z,11.50
2022-10-20T09:12:46.616Z,11.70
2022-10-20T09:15:15.836Z,11.80
2022-10-20T09:18:04.314Z,11.80
2022-10-20T09:20:36.473Z,11.70
2022-10-20T09:23:07.790Z,11.90
2022-10-20T09:25:40.800Z,12.00
2022-10-20T09:28:26.650Z,12.10
2022-10-20T09:30:54.966Z,12.00
2022-10-20T09:33:29.985Z,12.00
2022-10-20T09:36:15.795Z,12.10
2022-10-20T09:38:46.340Z,12.30
2022-10-20T09:41:37.254Z,12.30
2022-10-20T09:44:13.628Z,12.50
2022-10-20T09:46:48.629Z,12.60
2022-10-20T09:49:35.087Z,12.80
2022-10-20T09:52:04.482Z,13.10
2022-10-20T09:54:31.256Z,13.20
2022-10-20T09:57:07.437Z,13.30
2022-10-20T09:59:43.786Z,13.30
2022-10-20T10:02:16.658Z,13.20
2022-10-20T10:04:49.430Z,13.30
2022-10-20T10:07:22.415Z,13.20
2022-10-20T10:10:08.660Z,13.10
2022-10-20T10:12:36.488Z,13.10
2022-10-20T10:15:23.375Z,13.10
2022-10-20T10:17:51.161Z,13.00
2022-10-20T10:20:18.068Z,13.00
2022-10-20T10:22:45.247Z,13.10
2022-10-20T10:25:26.015Z,13.10
2022-10-20T10:28:09.165Z,13.20
2022-10-20T10:30:38.345Z,13.50
2022-10-20T10:33:29.195Z,13.50
2022-10-20T10:35:57.207Z,13.60
2022-10-20T10:38:23.993Z,13.60
2022-10-20T10:41:18.924Z,13.80
2022-10-20T10:43:49.062Z,13.90
2022-10-20T10:47:01.011Z,14.00
2022-10-20T10:50:04.101Z,14.30
2022-10-20T10:52:30.935Z,14.50
2022-10-20T10:55:04.015Z,14.70
2022-10-20T10:57:43.309Z,15.10
2022-10-20T11:00:29.490Z,15.50
2022-10-20T11:03:18.635Z,15.80
2022-10-20T11:05:57.531Z,16.10
2022-10-20T11:08:37.486Z,15.80
2022-10-20T11:11:24.911Z,15.60
2022-10-20T11:14:01.117Z,15.60
2022-10-20T11:16:58.738Z,15.40
2022-10-20T11:19:47.848Z,15.20
2022-10-20T11:22:35.846Z,15.10
2022-10-20T11:25:21.404Z,15.10
2022-10-20T11:27:48.512Z,15.00
2022-10-20T11:30:21.313Z,15.00
2022-10-20T11:32:57.933Z,15.10
2022-10-20T11:35:30.562Z,15.10
2022-10-20T11:38:12.982Z,15.30
2022-10-20T11:40:43.429Z,15.20
2022-10-20T11:43:29.165Z,15.20
2022-10-20T11:46:11.011Z,15.20
2022-10-20T11:48:50.780Z,15.30
2022-10-20T11:51:40.534Z,15.40
2022-10-20T11:54:28.222Z,15.60
2022-10-20T11:58:01.152Z,15.70
2022-10-20T12:00:55.089Z,15.90
2022-10-20T12:03:24.354Z,15.90
2022-10-20T12:06:10.410Z,16.00
2022-10-20T12:09:20.404Z,16.00
2022-10-20T12:11:56.391Z,16.00
2022-10-20T12:14:31.104Z,15.80
2022-10-20T12:17:13.700Z,15.70
2022-10-20T12:19:40.602Z,15.80
2022-10-20T12:22:33.253Z,15.70
2022-10-20T12:24:59.991Z,15.70
2022-10-20T12:27:30.105Z,15.60
2022-10-20T12:30:20.079Z,15.70
2022-10-20T12:32:57.581Z,15.70
2022-10-20T12:35:24.269Z,15.80
2022-10-20T12:38:04.006Z,15.90
2022-10-20T12:40:34.839Z,15.90
2022-10-20T12:43:01.661Z,15.80
2022-10-20T12:45:40.779Z,16.00
2022-10-20T12:48:16.463Z,16.00
2022-10-20T12:50:49.401Z,16.00
2022-10-20T12:53:19.128Z,16.10
2022-10-20T12:56:10.758Z,16.10
2022-10-20T12:59:08.469Z,16.10
2022-10-20T13:02:09.538Z,16.00
2022-10-20T13:04:58.023Z,15.90
2022-10-20T13:07:46.870Z,15.80
2022-10-20T13:10:31.604Z,15.70
2022-10-20T13:13:01.513Z,15.60
2022-10-20T13:15:35.621Z,15.50
2022-10-20T13:18:04.239Z,15.50
2022-10-20T13:20:55.418Z,15.50
2022-10-20T13:23:41.072Z,15.40
2022-10-20T13:26:22.758Z,15.40
2022-10-20T13:28:52.414Z,15.30
2022-10-20T13:31:28.125Z,15.30
2022-10-20T13:34:19.091Z,15.30
2022-10-20T13:37:31.249Z,15.20
2022-10-20T13:40:11.404Z,15.10
2022-10-20T13:43:11.838Z,15.10
2022-10-20T13:46:06.453Z,15.20
2022-10-20T13:48:58.947Z,15.10
2022-10-20T13:51:29.142Z,15.10
2022-10-20T13:54:00.994Z,15.10
2022-10-20T13:56:46.456Z,15.10
2022-10-20T14:02:02.036Z,15.00
2022-10-20T14:04:31.713Z,15.00
2022-10-20T14:07:16.021Z,15.00
2022-10-20T14:09:46.650Z,14.90
2022-10-20T14:12:18.906Z,14.90
2022-10-20T14:14:46.132Z,14.90
2022-10-20T14:17:20.086Z,14.80
2022-10-20T14:19:47.089Z,14.80
2022-10-20T14:22:25.708Z,14.80
2022-10-20T14:24:59.979Z,14.80
2022-10-20T14:27:30.013Z,14.80
2022-10-20T14:29:58.160Z,14.80
2022-10-20T14:32:28.046Z,14.70
2022-10-20T14:34:57.215Z,14.70
2022-10-20T14:37:40.733Z,14.70
2022-10-20T14:40:20.164Z,14.70
2022-10-20T14:42:47.098Z,14.70
2022-10-20T14:45:20.581Z,14.70
2022-10-20T14:47:48.001Z,14.70
2022-10-20T14:50:43.837Z,14.60
2022-10-20T14:53:23.027Z,14.60
2022-10-20T14:55:50.081Z,14.60
2022-10-20T14:58:30.220Z,14.70
2022-10-20T15:01:18.293Z,14.60
2022-10-20T15:03:45.499Z,14.60
2022-10-20T15:06:17.890Z,14.60
2022-10-20T15:08:54.903Z,14.60
2022-10-20T15:11:24.610Z,14.50
2022-10-20T15:13:59.011Z,14.50
2022-10-20T15:16:40.635Z,14.50
2022-10-20T15:19:30.834Z,14.50
2022-10-20T15:24:40.758Z,14.40
2022-10-20T15:27:15.877Z,14.40
2022-10-20T15:29:49.897Z,14.40
2022-10-20T15:32:17.638Z,14.40
2022-10-20T15:34:44.951Z,14.30
2022-10-20T15:37:11.879Z,14.30
2022-10-20T15:39:38.655Z,14.30
2022-10-20T15:42:11.064Z,14.20
2022-10-20T15:44:38.240Z,14.20
2022-10-20T15:47:05.133Z,14.20
2022-10-20T15:49:31.987Z,14.10
2022-10-20T15:51:58.816Z,14.10
2022-10-20T15:54:25.635Z,14.00
2022-10-20T15:56:52.468Z,13.90
2022-10-20T15:59:19.221Z,13.80
2022-10-20T16:01:46.382Z,13.70
2022-10-20T16:04:26.436Z,13.70
2022-10-20T16:06:57.768Z,13.60
2022-10-20T16:09:26.289Z,13.60
2022-10-20T16:11:53.218Z,13.50
2022-10-20T16:14:20.056Z,13.40
2022-10-20T16:16:46.899Z,13.50
2022-10-20T16:19:13.881Z,13.40
2022-10-20T16:21:41.639Z,13.40
2022-10-20T16:24:08.601Z,13.30
2022-10-20T16:26:37.997Z,13.40
2022-10-20T16:29:04.827Z,13.20
2022-10-20T16:31:31.888Z,13.20
2022-10-20T16:34:00.712Z,13.20
2022-10-20T16:36:27.617Z,13.20
2022-10-20T16:39:00.743Z,13.20
2022-10-20T16:41:27.988Z,13.10
2022-10-20T16:43:56.429Z,13.10
2022-10-20T16:46:26.121Z,13.10
2022-10-20T16:49:02.242Z,13.00
2022-10-20T16:51:32.388Z,13.00
2022-10-20T16:54:03.316Z,13.00
2022-10-20T16:56:31.518Z,12.90
2022-10-20T16:58:58.653Z,13.00
2022-10-20T17:01:26.710Z,12.90
2022-10-20T17:03:57.646Z,12.90
2022-10-20T17:06:26.479Z,12.90
2022-10-20T17:08:54.207Z,12.90
2022-10-20T17:11:35.401Z,12.80
2022-10-20T17:14:02.262Z,12.90
2022-10-20T17:16:32.280Z,12.80
2022-10-20T17:19:01.041Z,12.80
2022-10-20T17:21:29.202Z,12.80
2022-10-20T17:23:56.590Z,12.80
2022-10-20T17:26:28.491Z,12.80
2022-10-20T17:28:56.700Z,12.70
2022-10-20T17:31:23.532Z,12.80
2022-10-20T17:33:51.574Z,12.70
2022-10-20T17:36:19.107Z,12.80
2022-10-20T17:38:46.049Z,12.70
2022-10-20T17:41:15.643Z,12.80
2022-10-20T17:43:42.844Z,12.80
2022-10-20T17:46:13.154Z,12.80
2022-10-20T17:48:40.381Z,12.80
2022-10-20T17:51:13.397Z,12.90
2022-10-20T17:53:43.684Z,12.70
2022-10-20T17:56:13.417Z,12.70
2022-10-20T17:58:41.911Z,12.80
2022-10-20T18:01:18.618Z,12.70
2022-10-20T18:03:47.632Z,12.80
2022-10-20T18:06:20.139Z,12.80
2022-10-20T18:08:47.909Z,12.70
2022-10-20T18:11:18.976Z,12.90
2022-10-20T18:13:46.681Z,12.70
2022-10-20T18:16:19.129Z,12.70
2022-10-20T18:18:47.016Z,12.70
2022-10-20T18:21:16.202Z,12.70
2022-10-20T18:23:46.480Z,12.70
2022-10-20T18:26:18.781Z,12.70
2022-10-20T18:28:48.368Z,12.70
2022-10-20T18:31:20.600Z,12.70
2022-10-20T18:33:48.464Z,12.70
2022-10-20T18:36:18.091Z,12.70
2022-10-20T18:38:46.320Z,12.70
2022-10-20T18:41:21.981Z,12.70
2022-10-20T18:43:57.815Z,12.60
2022-10-20T18:46:27.110Z,12.60
2022-10-20T18:48:55.074Z,12.60
2022-10-20T18:51:22.775Z,12.60
2022-10-20T18:53:53.890Z,12.60
2022-10-20T18:56:23.202Z,12.60
2022-10-20T18:58:52.899Z,12.50
2022-10-20T19:01:24.330Z,12.50
2022-10-20T19:03:53.692Z,12.50
2022-10-20T19:06:29.932Z,12.50
2022-10-20T19:09:01.106Z,12.50
2022-10-20T19:11:31.039Z,12.50
2022-10-20T19:13:58.539Z,12.50
2022-10-20T19:16:27.857Z,12.50
2022-10-20T19:18:56.709Z,12.50
2022-10-20T19:21:25.394Z,12.50
2022-10-20T19:24:03.082Z,12.50
2022-10-20T19:26:32.397Z,12.50
2022-10-20T19:29:11.397Z,12.50
2022-10-20T19:31:50.287Z,12.40
2022-10-20T19:34:34.753Z,12.50
2022-10-20T19:37:02.788Z,12.50
2022-10-20T19:39:33.761Z,12.50
2022-10-20T19:42:05.758Z,12.50
2022-10-20T19:44:33.021Z,12.50
2022-10-20T19:47:00.085Z,12.50
2022-10-20T19:49:27.643Z,12.60
2022-10-20T19:51:54.966Z,12.40
2022-10-20T19:54:24.196Z,12.40
2022-10-20T19:56:51.068Z,12.40
2022-10-20T19:59:18.445Z,12.40
2022-10-20T20:01:55.903Z,12.40
2022-10-20T20:04:22.730Z,12.40
2022-10-20T20:06:49.634Z,12.40
2022-10-20T20:09:16.970Z,12.40
2022-10-20T20:11:44.238Z,12.40
2022-10-20T20:14:14.538Z,12.40
2022-10-20T20:16:41.798Z,12.40
2022-10-20T20:19:08.746Z,12.40
2022-10-20T20:21:35.673Z,12.40
2022-10-20T20:24:03.971Z,12.40
2022-10-20T20:26:35.114Z,12.40
2022-10-20T20:29:03.036Z,12.30
2022-10-20T20:31:30.483Z,12.30
2022-10-20T20:33:57.617Z,12.30
2022-10-20T20:36:28.853Z,12.20
2022-10-20T20:38:58.052Z,12.30
2022-10-20T20:41:26.993Z,12.20
2022-10-20T20:43:54.662Z,12.20
2022-10-20T20:46:23.033Z,12.20
2022-10-20T20:48:50.430Z,12.20
2022-10-20T20:51:17.368Z,12.20
2022-10-20T20:53:44.238Z,12.20
2022-10-20T20:56:14.394Z,12.10
2022-10-20T20:58:42.393Z,12.10
2022-10-20T21:01:21.268Z,12.00
2022-10-20T21:03:51.909Z,12.10
2022-10-20T21:06:20.979Z,12.10
2022-10-20T21:08:52.766Z,12.10
2022-10-20T21:11:22.349Z,12.10
2022-10-20T21:13:50.978Z,12.00
2022-10-20T21:16:25.926Z,12.10
2022-10-20T21:18:54.975Z,12.00
2022-10-20T21:21:24.168Z,12.00
2022-10-20T21:23:51.944Z,12.00
2022-10-20T21:26:20.125Z,12.00
2022-10-20T21:28:47.213Z,12.00
2022-10-20T21:31:16.318Z,12.00
2022-10-20T21:33:43.287Z,12.00
2022-10-20T21:36:15.210Z,11.90
2022-10-20T21:38:43.172Z,12.00
2022-10-20T21:41:17.134Z,12.00
2022-10-20T21:43:46.551Z,12.00
2022-10-20T21:46:19.367Z,12.00
2022-10-20T21:48:48.264Z,12.00
2022-10-20T21:51:37.314Z,12.00
2022-10-20T21:54:06.471Z,12.00
2022-10-20T21:56:38.647Z,12.00
2022-10-20T21:59:06.176Z,11.90
2022-10-20T22:01:33.242Z,12.00
2022-10-20T22:04:00.282Z,11.90
2022-10-20T22:06:27.767Z,12.00
2022-10-20T22:08:57.862Z,11.90
2022-10-20T22:11:35.282Z,11.90
2022-10-20T22:14:02.183Z,12.00
2022-10-20T22:16:31.932Z,12.00
2022-10-20T22:19:12.037Z,12.00
2022-10-20T22:21:41.789Z,12.10
2022-10-20T22:24:09.070Z,12.00
2022-10-20T22:26:36.697Z,12.00
2022-10-20T22:29:05.101Z,12.20
2022-10-20T22:31:32.339Z,12.00
2022-10-20T22:33:59.892Z,12.20
2022-10-20T22:36:27.522Z,12.00
2022-10-20T22:38:54.708Z,12.00
2022-10-20T22:41:21.621Z,12.10
2022-10-20T22:43:48.508Z,12.10
2022-10-20T22:46:16.280Z,12.10
2022-10-20T22:48:43.139Z,12.10
2022-10-20T22:51:13.007Z,12.10
2022-10-20T22:53:39.788Z,12.10
2022-10-20T22:56:15.470Z,12.10
2022-10-20T22:58:42.734Z,12.20
2022-10-20T23:01:12.399Z,12.20
2022-10-20T23:03:39.878Z,12.30
2022-10-20T23:06:15.843Z,12.30
2022-10-20T23:08:45.267Z,12.30
2022-10-20T23:11:13.264Z,12.40
2022-10-20T23:13:44.181Z,12.40
2022-10-20T23:16:11.875Z,12.40
2022-10-20T23:18:39.518Z,12.40
2022-10-20T23:21:06.838Z,12.50
2022-10-20T23:23:37.961Z,12.50
2022-10-20T23:26:08.523Z,12.50
2022-10-20T23:28:36.774Z,12.60
2022-10-20T23:31:11.032Z,12.50
2022-10-20T23:33:38.920Z,12.60
2022-10-20T23:36:06.072Z,12.60
2022-10-20T23:38:33.199Z,12.60
2022-10-20T23:41:00.096Z,12.70
2022-10-20T23:43:27.282Z,12.70
2022-10-20T23:45:54.097Z,12.70
2022-10-20T23:48:20.914Z,12.60
2022-10-20T23:50:47.844Z,12.70
2022-10-20T23:53:14.979Z,12.70
2022-10-20T23:55:43.053Z,12.80
2022-10-20T23:58:12.429Z,12.70
